sensor_id;sensor_type;location;lat;lon;timestamp;temperature;humidity
29241;DHT22;16268;49.880;8.648;2023-05-20T00:00:22;13.50;99.90
29241;DHT22;16268;49.880;8.648;2023-05-20T00:02:47;13.50;99.90
29241;DHT22;16268;49.880;8.648;2023-05-20T00:05:13;13.50;99.90
29241;DHT22;16268;49.880;8.648;2023-05-20T00:07:39;13.50;99.90
29241;DHT22;16268;49.880;8.648;2023-05-20T00:10:05;13.40;99.90
29241;DHT22;16268;49.880;8.648;2023-05-20T00:12:31;13.30;99.90
29241;DHT22;16268;49.880;8.648;2023-05-20T00:14:56;13.30;99.90
29241;DHT22;16268;49.880;8.648;2023-05-20T00:17:22;13.30;99.90
29241;DHT22;16268;49.880;8.648;2023-05-20T00:19:49;13.30;99.90
29241;DHT22;16268;49.880;8.648;2023-05-20T00:22:15;13.30;99.90
29241;DHT22;16268;49.880;8.648;2023-05-20T00:24:40;13.30;99.90
29241;DHT22;16268;49.880;8.648;2023-05-20T00:27:06;13.30;99.90
29241;DHT22;16268;49.880;8.648;2023-05-20T00:29:32;13.30;99.90
29241;DHT22;16268;49.880;8.648;2023-05-20T00:31:58;13.30;99.90
29241;DHT22;16268;49.880;8.648;2023-05-20T00:34:23;13.20;99.90
29241;DHT22;16268;49.880;8.648;2023-05-20T00:36:49;13.20;99.90
29241;DHT22;16268;49.880;8.648;2023-05-20T00:39:15;13.20;99.90
29241;DHT22;16268;49.880;8.648;2023-05-20T00:41:41;13.20;99.90
29241;DHT22;16268;49.880;8.648;2023-05-20T00:44:06;13.20;99.90
29241;DHT22;16268;49.880;8.648;2023-05-20T00:46:32;13.20;99.90
29241;DHT22;16268;49.880;8.648;2023-05-20T00:48:58;13.10;99.90
29241;DHT22;16268;49.880;8.648;2023-05-20T00:51:23;13.10;99.90
29241;DHT22;16268;49.880;8.648;2023-05-20T00:53:49;13.10;99.90
29241;DHT22;16268;49.880;8.648;2023-05-20T00:56:17;13.00;99.90
29241;DHT22;16268;49.880;8.648;2023-05-20T00:58:42;13.00;99.90
29241;DHT22;16268;49.880;8.648;2023-05-20T01:01:08;13.10;99.90
29241;DHT22;16268;49.880;8.648;2023-05-20T01:03:34;13.00;99.90
29241;DHT22;16268;49.880;8.648;2023-05-20T01:05:59;13.00;99.90
29241;DHT22;16268;49.880;8.648;2023-05-20T01:08:25;13.00;99.90
29241;DHT22;16268;49.880;8.648;2023-05-20T01:10:59;12.90;99.90
29241;DHT22;16268;49.880;8.648;2023-05-20T01:16:50;12.90;99.90
29241;DHT22;16268;49.880;8.648;2023-05-20T01:19:33;12.90;99.90
29241;DHT22;16268;49.880;8.648;2023-05-20T01:22:02;12.90;99.90
29241;DHT22;16268;49.880;8.648;2023-05-20T01:24:29;12.90;99.90
29241;DHT22;16268;49.880;8.648;2023-05-20T01:26:55;12.80;99.90
29241;DHT22;16268;49.880;8.648;2023-05-20T01:29:23;12.80;99.90
29241;DHT22;16268;49.880;8.648;2023-05-20T01:31:49;12.80;99.90
29241;DHT22;16268;49.880;8.648;2023-05-20T01:34:16;12.80;99.90
29241;DHT22;16268;49.880;8.648;2023-05-20T01:36:44;12.80;99.90
29241;DHT22;16268;49.880;8.648;2023-05-20T01:39:11;12.80;99.90
29241;DHT22;16268;49.880;8.648;2023-05-20T01:41:37;12.70;99.90
29241;DHT22;16268;49.880;8.648;2023-05-20T01:44:03;12.70;99.90
29241;DHT22;16268;49.880;8.648;2023-05-20T01:46:32;12.70;99.90
29241;DHT22;16268;49.880;8.648;2023-05-20T01:48:58;12.70;99.90
29241;DHT22;16268;49.880;8.648;2023-05-20T01:51:24;12.70;99.90
29241;DHT22;16268;49.880;8.648;2023-05-20T01:53:49;12.60;99.90
29241;DHT22;16268;49.880;8.648;2023-05-20T01:56:15;12.60;99.90
29241;DHT22;16268;49.880;8.648;2023-05-20T01:58:41;12.60;99.90
29241;DHT22;16268;49.880;8.648;2023-05-20T02:01:06;12.50;99.90
29241;DHT22;16268;49.880;8.648;2023-05-20T02:03:32;12.60;99.90
29241;DHT22;16268;49.880;8.648;2023-05-20T02:05:57;12.50;99.90
29241;DHT22;16268;49.880;8.648;2023-05-20T02:08:23;12.50;99.90
29241;DHT22;16268;49.880;8.648;2023-05-20T02:10:49;12.50;99.90
29241;DHT22;16268;49.880;8.648;2023-05-20T02:13:14;12.50;99.90
29241;DHT22;16268;49.880;8.648;2023-05-20T02:15:40;12.50;99.90
29241;DHT22;16268;49.880;8.648;2023-05-20T02:18:06;12.50;99.90
29241;DHT22;16268;49.880;8.648;2023-05-20T02:20:34;12.50;99.90
29241;DHT22;16268;49.880;8.648;2023-05-20T02:23:00;12.50;99.90
29241;DHT22;16268;49.880;8.648;2023-05-20T02:25:27;12.40;99.90
29241;DHT22;16268;49.880;8.648;2023-05-20T02:27:52;12.40;99.90
29241;DHT22;16268;49.880;8.648;2023-05-20T02:30:18;12.40;99.90
29241;DHT22;16268;49.880;8.648;2023-05-20T02:32:43;12.40;99.90
29241;DHT22;16268;49.880;8.648;2023-05-20T02:35:09;12.40;99.90
29241;DHT22;16268;49.880;8.648;2023-05-20T02:37:34;12.40;99.90
29241;DHT22;16268;49.880;8.648;2023-05-20T02:40:00;12.40;99.90
29241;DHT22;16268;49.880;8.648;2023-05-20T02:42:26;12.40;99.90
29241;DHT22;16268;49.880;8.648;2023-05-20T02:44:51;12.40;99.90
29241;DHT22;16268;49.880;8.648;2023-05-20T02:47:20;12.40;99.90
29241;DHT22;16268;49.880;8.648;2023-05-20T02:49:46;12.40;99.90
29241;DHT22;16268;49.880;8.648;2023-05-20T02:52:12;12.40;99.90
29241;DHT22;16268;49.880;8.648;2023-05-20T02:54:37;12.30;99.90
29241;DHT22;16268;49.880;8.648;2023-05-20T02:57:03;12.40;99.90
29241;DHT22;16268;49.880;8.648;2023-05-20T02:59:28;12.30;99.90
29241;DHT22;16268;49.880;8.648;2023-05-20T03:01:54;12.30;99.90
29241;DHT22;16268;49.880;8.648;2023-05-20T03:04:19;12.20;99.90
29241;DHT22;16268;49.880;8.648;2023-05-20T03:06:45;12.20;99.90
29241;DHT22;16268;49.880;8.648;2023-05-20T03:09:12;12.20;99.90
29241;DHT22;16268;49.880;8.648;2023-05-20T03:11:38;12.20;99.90
29241;DHT22;16268;49.880;8.648;2023-05-20T03:14:04;12.20;99.90
29241;DHT22;16268;49.880;8.648;2023-05-20T03:16:29;12.20;99.90
29241;DHT22;16268;49.880;8.648;2023-05-20T03:18:55;12.20;99.90
29241;DHT22;16268;49.880;8.648;2023-05-20T03:21:21;12.20;99.90
29241;DHT22;16268;49.880;8.648;2023-05-20T03:23:48;12.20;99.90
29241;DHT22;16268;49.880;8.648;2023-05-20T03:26:13;12.10;99.90
29241;DHT22;16268;49.880;8.648;2023-05-20T03:28:39;12.10;99.90
29241;DHT22;16268;49.880;8.648;2023-05-20T03:31:05;12.10;99.90
29241;DHT22;16268;49.880;8.648;2023-05-20T03:33:33;12.10;99.90
29241;DHT22;16268;49.880;8.648;2023-05-20T03:35:59;12.20;99.90
29241;DHT22;16268;49.880;8.648;2023-05-20T03:38:25;12.20;99.90
29241;DHT22;16268;49.880;8.648;2023-05-20T03:40:51;12.10;99.90
29241;DHT22;16268;49.880;8.648;2023-05-20T03:43:16;12.10;99.90
29241;DHT22;16268;49.880;8.648;2023-05-20T03:45:42;12.20;99.90
29241;DHT22;16268;49.880;8.648;2023-05-20T03:48:07;12.20;99.90
29241;DHT22;16268;49.880;8.648;2023-05-20T03:50:33;12.20;99.90
29241;DHT22;16268;49.880;8.648;2023-05-20T03:52:58;12.30;99.90
29241;DHT22;16268;49.880;8.648;2023-05-20T03:55:24;12.30;99.90
29241;DHT22;16268;49.880;8.648;2023-05-20T03:57:50;12.30;99.90
29241;DHT22;16268;49.880;8.648;2023-05-20T04:00:17;12.30;99.90
29241;DHT22;16268;49.880;8.648;2023-05-20T04:02:43;12.30;99.90
29241;DHT22;16268;49.880;8.648;2023-05-20T04:05:08;12.40;99.90
29241;DHT22;16268;49.880;8.648;2023-05-20T04:07:35;12.40;99.90
29241;DHT22;16268;49.880;8.648;2023-05-20T04:10:01;12.40;99.90
29241;DHT22;16268;49.880;8.648;2023-05-20T04:12:26;12.40;99.90
29241;DHT22;16268;49.880;8.648;2023-05-20T04:14:56;12.40;99.90
29241;DHT22;16268;49.880;8.648;2023-05-20T04:17:22;12.50;99.90
29241;DHT22;16268;49.880;8.648;2023-05-20T04:19:48;12.50;99.90
29241;DHT22;16268;49.880;8.648;2023-05-20T04:22:13;12.50;99.90
29241;DHT22;16268;49.880;8.648;2023-05-20T04:24:39;12.50;99.90
29241;DHT22;16268;49.880;8.648;2023-05-20T04:27:04;12.60;99.90
29241;DHT22;16268;49.880;8.648;2023-05-20T04:29:30;12.60;99.90
29241;DHT22;16268;49.880;8.648;2023-05-20T04:31:58;12.70;99.90
29241;DHT22;16268;49.880;8.648;2023-05-20T04:34:28;12.80;99.90
29241;DHT22;16268;49.880;8.648;2023-05-20T04:36:53;12.80;99.90
29241;DHT22;16268;49.880;8.648;2023-05-20T04:39:19;12.90;99.90
29241;DHT22;16268;49.880;8.648;2023-05-20T04:41:45;12.90;99.90
29241;DHT22;16268;49.880;8.648;2023-05-20T04:44:12;12.90;99.90
29241;DHT22;16268;49.880;8.648;2023-05-20T04:46:38;13.00;99.90
29241;DHT22;16268;49.880;8.648;2023-05-20T04:49:04;13.10;99.90
29241;DHT22;16268;49.880;8.648;2023-05-20T04:51:29;13.10;99.90
29241;DHT22;16268;49.880;8.648;2023-05-20T04:53:55;13.20;99.90
29241;DHT22;16268;49.880;8.648;2023-05-20T04:56:21;13.30;99.90
29241;DHT22;16268;49.880;8.648;2023-05-20T04:58:46;13.30;99.90
29241;DHT22;16268;49.880;8.648;2023-05-20T05:01:12;13.50;99.90
29241;DHT22;16268;49.880;8.648;2023-05-20T05:03:37;13.80;99.90
29241;DHT22;16268;49.880;8.648;2023-05-20T05:06:03;14.00;99.90
29241;DHT22;16268;49.880;8.648;2023-05-20T05:08:29;14.30;99.90
29241;DHT22;16268;49.880;8.648;2023-05-20T05:10:54;14.30;99.90
29241;DHT22;16268;49.880;8.648;2023-05-20T05:13:20;14.30;99.90
29241;DHT22;16268;49.880;8.648;2023-05-20T05:15:45;14.50;99.90
29241;DHT22;16268;49.880;8.648;2023-05-20T05:18:11;14.60;99.90
29241;DHT22;16268;49.880;8.648;2023-05-20T05:20:36;14.60;99.90
29241;DHT22;16268;49.880;8.648;2023-05-20T05:23:02;14.60;99.90
29241;DHT22;16268;49.880;8.648;2023-05-20T05:25:28;14.70;99.90
29241;DHT22;16268;49.880;8.648;2023-05-20T05:27:53;14.80;99.90
29241;DHT22;16268;49.880;8.648;2023-05-20T05:30:22;14.70;99.90
29241;DHT22;16268;49.880;8.648;2023-05-20T05:32:48;14.80;99.90
29241;DHT22;16268;49.880;8.648;2023-05-20T05:35:13;14.70;99.90
29241;DHT22;16268;49.880;8.648;2023-05-20T05:37:39;14.90;99.90
29241;DHT22;16268;49.880;8.648;2023-05-20T05:40:06;15.20;99.90
29241;DHT22;16268;49.880;8.648;2023-05-20T05:42:32;15.40;99.90
29241;DHT22;16268;49.880;8.648;2023-05-20T05:44:58;15.60;99.90
29241;DHT22;16268;49.880;8.648;2023-05-20T05:47:23;15.80;99.90
29241;DHT22;16268;49.880;8.648;2023-05-20T05:49:53;15.70;99.90
29241;DHT22;16268;49.880;8.648;2023-05-20T05:52:19;15.40;99.90
29241;DHT22;16268;49.880;8.648;2023-05-20T05:54:44;15.30;99.90
29241;DHT22;16268;49.880;8.648;2023-05-20T05:57:10;15.20;99.90
29241;DHT22;16268;49.880;8.648;2023-05-20T05:59:36;15.10;99.90
29241;DHT22;16268;49.880;8.648;2023-05-20T06:02:01;15.10;99.90
29241;DHT22;16268;49.880;8.648;2023-05-20T06:04:27;15.10;99.90
29241;DHT22;16268;49.880;8.648;2023-05-20T06:06:53;15.10;99.90
29241;DHT22;16268;49.880;8.648;2023-05-20T06:09:18;15.10;99.90
29241;DHT22;16268;49.880;8.648;2023-05-20T06:11:43;15.00;99.90
29241;DHT22;16268;49.880;8.648;2023-05-20T06:14:09;14.90;99.90
29241;DHT22;16268;49.880;8.648;2023-05-20T06:16:35;14.90;99.90
29241;DHT22;16268;49.880;8.648;2023-05-20T06:19:00;15.10;99.90
29241;DHT22;16268;49.880;8.648;2023-05-20T06:21:26;15.10;99.90
29241;DHT22;16268;49.880;8.648;2023-05-20T06:23:51;15.00;99.90
29241;DHT22;16268;49.880;8.648;2023-05-20T06:26:17;15.00;99.90
29241;DHT22;16268;49.880;8.648;2023-05-20T06:28:43;14.90;99.90
29241;DHT22;16268;49.880;8.648;2023-05-20T06:31:08;14.90;99.90
29241;DHT22;16268;49.880;8.648;2023-05-20T06:33:34;15.00;99.90
29241;DHT22;16268;49.880;8.648;2023-05-20T06:35:59;15.10;99.90
29241;DHT22;16268;49.880;8.648;2023-05-20T06:38:26;15.10;99.90
29241;DHT22;16268;49.880;8.648;2023-05-20T06:40:51;15.20;99.90
29241;DHT22;16268;49.880;8.648;2023-05-20T06:43:17;15.30;99.90
29241;DHT22;16268;49.880;8.648;2023-05-20T06:45:43;15.40;99.90
29241;DHT22;16268;49.880;8.648;2023-05-20T06:48:09;15.40;99.90
29241;DHT22;16268;49.880;8.648;2023-05-20T06:50:35;15.40;99.90
29241;DHT22;16268;49.880;8.648;2023-05-20T06:53:01;15.30;99.90
29241;DHT22;16268;49.880;8.648;2023-05-20T06:55:26;15.20;99.90
29241;DHT22;16268;49.880;8.648;2023-05-20T06:57:52;15.20;99.90
29241;DHT22;16268;49.880;8.648;2023-05-20T07:00:18;15.20;99.90
29241;DHT22;16268;49.880;8.648;2023-05-20T07:02:43;15.10;99.90
29241;DHT22;16268;49.880;8.648;2023-05-20T07:05:09;15.20;99.90
29241;DHT22;16268;49.880;8.648;2023-05-20T07:07:35;15.30;99.90
29241;DHT22;16268;49.880;8.648;2023-05-20T07:10:01;15.40;99.90
29241;DHT22;16268;49.880;8.648;2023-05-20T07:12:30;15.50;99.90
29241;DHT22;16268;49.880;8.648;2023-05-20T07:14:55;15.60;99.90
29241;DHT22;16268;49.880;8.648;2023-05-20T07:17:21;15.40;99.90
29241;DHT22;16268;49.880;8.648;2023-05-20T07:19:46;15.40;99.90
29241;DHT22;16268;49.880;8.648;2023-05-20T07:22:12;15.40;99.90
29241;DHT22;16268;49.880;8.648;2023-05-20T07:24:37;15.40;99.90
29241;DHT22;16268;49.880;8.648;2023-05-20T07:27:03;15.50;99.90
29241;DHT22;16268;49.880;8.648;2023-05-20T07:29:29;15.70;99.90
29241;DHT22;16268;49.880;8.648;2023-05-20T07:31:54;15.90;99.90
29241;DHT22;16268;49.880;8.648;2023-05-20T07:34:20;16.10;99.90
29241;DHT22;16268;49.880;8.648;2023-05-20T07:36:47;16.20;99.90
29241;DHT22;16268;49.880;8.648;2023-05-20T07:39:14;16.60;99.90
29241;DHT22;16268;49.880;8.648;2023-05-20T07:41:40;16.70;99.90
29241;DHT22;16268;49.880;8.648;2023-05-20T07:44:06;17.20;99.90
29241;DHT22;16268;49.880;8.648;2023-05-20T07:46:35;17.90;99.90
29241;DHT22;16268;49.880;8.648;2023-05-20T07:49:02;18.00;99.90
29241;DHT22;16268;49.880;8.648;2023-05-20T07:51:28;17.80;99.90
29241;DHT22;16268;49.880;8.648;2023-05-20T07:53:54;17.60;99.90
29241;DHT22;16268;49.880;8.648;2023-05-20T07:56:22;17.60;99.90
29241;DHT22;16268;49.880;8.648;2023-05-20T07:58:52;18.10;99.90
29241;DHT22;16268;49.880;8.648;2023-05-20T08:01:19;18.40;99.90
29241;DHT22;16268;49.880;8.648;2023-05-20T08:03:44;18.60;99.90
29241;DHT22;16268;49.880;8.648;2023-05-20T08:06:10;18.80;99.90
29241;DHT22;16268;49.880;8.648;2023-05-20T08:08:36;18.60;99.90
29241;DHT22;16268;49.880;8.648;2023-05-20T08:11:02;18.90;99.90
29241;DHT22;16268;49.880;8.648;2023-05-20T08:13:28;18.80;99.90
29241;DHT22;16268;49.880;8.648;2023-05-20T08:15:54;18.70;99.90
29241;DHT22;16268;49.880;8.648;2023-05-20T08:18:19;18.90;99.90
29241;DHT22;16268;49.880;8.648;2023-05-20T08:20:45;19.90;99.90
29241;DHT22;16268;49.880;8.648;2023-05-20T08:23:11;20.10;99.90
29241;DHT22;16268;49.880;8.648;2023-05-20T08:25:36;19.90;99.90
29241;DHT22;16268;49.880;8.648;2023-05-20T08:28:05;19.70;99.90
29241;DHT22;16268;49.880;8.648;2023-05-20T08:30:32;19.80;99.90
29241;DHT22;16268;49.880;8.648;2023-05-20T08:32:58;19.80;99.90
29241;DHT22;16268;49.880;8.648;2023-05-20T08:35:24;19.60;99.90
29241;DHT22;16268;49.880;8.648;2023-05-20T08:37:49;19.90;99.90
29241;DHT22;16268;49.880;8.648;2023-05-20T08:40:15;19.90;99.90
29241;DHT22;16268;49.880;8.648;2023-05-20T08:42:42;20.00;99.90
29241;DHT22;16268;49.880;8.648;2023-05-20T08:45:11;20.20;99.90
29241;DHT22;16268;49.880;8.648;2023-05-20T08:47:40;20.20;99.90
29241;DHT22;16268;49.880;8.648;2023-05-20T08:50:08;20.40;99.90
29241;DHT22;16268;49.880;8.648;2023-05-20T08:52:36;20.60;99.90
29241;DHT22;16268;49.880;8.648;2023-05-20T08:55:04;20.70;99.90
29241;DHT22;16268;49.880;8.648;2023-05-20T08:57:32;20.30;99.90
29241;DHT22;16268;49.880;8.648;2023-05-20T08:59:58;19.90;99.90
29241;DHT22;16268;49.880;8.648;2023-05-20T09:02:24;19.80;99.90
29241;DHT22;16268;49.880;8.648;2023-05-20T09:04:50;20.20;99.90
29241;DHT22;16268;49.880;8.648;2023-05-20T09:07:28;20.20;99.90
29241;DHT22;16268;49.880;8.648;2023-05-20T09:09:54;20.30;99.90
29241;DHT22;16268;49.880;8.648;2023-05-20T09:12:20;20.20;99.90
29241;DHT22;16268;49.880;8.648;2023-05-20T09:14:46;20.20;99.90
29241;DHT22;16268;49.880;8.648;2023-05-20T09:17:12;20.00;99.90
29241;DHT22;16268;49.880;8.648;2023-05-20T09:19:38;20.10;99.90
29241;DHT22;16268;49.880;8.648;2023-05-20T09:22:03;19.90;99.90
29241;DHT22;16268;49.880;8.648;2023-05-20T09:24:29;19.80;99.90
29241;DHT22;16268;49.880;8.648;2023-05-20T09:26:55;19.90;99.90
29241;DHT22;16268;49.880;8.648;2023-05-20T09:29:22;20.20;99.90
29241;DHT22;16268;49.880;8.648;2023-05-20T09:31:49;20.10;99.90
29241;DHT22;16268;49.880;8.648;2023-05-20T09:34:16;20.50;99.90
29241;DHT22;16268;49.880;8.648;2023-05-20T09:36:42;21.00;99.90
29241;DHT22;16268;49.880;8.648;2023-05-20T09:39:13;21.40;99.90
29241;DHT22;16268;49.880;8.648;2023-05-20T09:41:40;22.40;99.90
29241;DHT22;16268;49.880;8.648;2023-05-20T09:44:09;22.60;99.90
29241;DHT22;16268;49.880;8.648;2023-05-20T09:46:35;22.10;99.90
29241;DHT22;16268;49.880;8.648;2023-05-20T09:49:02;21.60;99.90
29241;DHT22;16268;49.880;8.648;2023-05-20T09:51:28;21.20;99.90
29241;DHT22;16268;49.880;8.648;2023-05-20T09:53:56;21.00;99.90
29241;DHT22;16268;49.880;8.648;2023-05-20T09:56:23;21.20;99.90
29241;DHT22;16268;49.880;8.648;2023-05-20T09:58:49;21.00;99.90
29241;DHT22;16268;49.880;8.648;2023-05-20T10:01:17;21.30;99.90
29241;DHT22;16268;49.880;8.648;2023-05-20T10:03:43;21.00;99.90
29241;DHT22;16268;49.880;8.648;2023-05-20T10:14:59;22.20;99.90
29241;DHT22;16268;49.880;8.648;2023-05-20T10:17:43;22.40;99.90
29241;DHT22;16268;49.880;8.648;2023-05-20T10:20:09;22.70;99.90
29241;DHT22;16268;49.880;8.648;2023-05-20T10:22:36;22.60;99.90
29241;DHT22;16268;49.880;8.648;2023-05-20T10:25:05;22.10;99.90
29241;DHT22;16268;49.880;8.648;2023-05-20T10:28:03;22.40;99.90
29241;DHT22;16268;49.880;8.648;2023-05-20T10:30:29;22.30;99.90
29241;DHT22;16268;49.880;8.648;2023-05-20T10:32:56;21.80;99.90
29241;DHT22;16268;49.880;8.648;2023-05-20T10:35:25;21.40;99.90
29241;DHT22;16268;49.880;8.648;2023-05-20T10:37:52;21.40;99.90
29241;DHT22;16268;49.880;8.648;2023-05-20T10:40:20;21.40;99.90
29241;DHT22;16268;49.880;8.648;2023-05-20T10:42:46;21.80;99.90
29241;DHT22;16268;49.880;8.648;2023-05-20T10:45:27;22.30;99.90
29241;DHT22;16268;49.880;8.648;2023-05-20T10:47:54;22.10;99.90
29241;DHT22;16268;49.880;8.648;2023-05-20T10:50:36;21.80;99.90
29241;DHT22;16268;49.880;8.648;2023-05-20T10:53:06;21.40;99.90
29241;DHT22;16268;49.880;8.648;2023-05-20T10:55:37;21.20;99.90
29241;DHT22;16268;49.880;8.648;2023-05-20T10:58:03;21.40;99.90
29241;DHT22;16268;49.880;8.648;2023-05-20T11:00:30;21.40;99.90
29241;DHT22;16268;49.880;8.648;2023-05-20T11:02:56;21.30;99.90
29241;DHT22;16268;49.880;8.648;2023-05-20T11:05:22;21.10;99.90
29241;DHT22;16268;49.880;8.648;2023-05-20T11:07:47;21.10;99.90
29241;DHT22;16268;49.880;8.648;2023-05-20T11:10:13;21.40;99.90
29241;DHT22;16268;49.880;8.648;2023-05-20T11:12:38;21.90;99.90
29241;DHT22;16268;49.880;8.648;2023-05-20T11:15:04;22.50;99.90
29241;DHT22;16268;49.880;8.648;2023-05-20T11:17:30;22.30;99.90
29241;DHT22;16268;49.880;8.648;2023-05-20T11:19:55;22.20;99.90
29241;DHT22;16268;49.880;8.648;2023-05-20T11:22:25;21.90;99.90
29241;DHT22;16268;49.880;8.648;2023-05-20T11:24:56;21.90;99.90
29241;DHT22;16268;49.880;8.648;2023-05-20T11:27:22;22.00;99.90
29241;DHT22;16268;49.880;8.648;2023-05-20T11:29:49;21.90;99.90
29241;DHT22;16268;49.880;8.648;2023-05-20T11:32:15;21.50;99.90
29241;DHT22;16268;49.880;8.648;2023-05-20T11:34:43;21.40;99.90
29241;DHT22;16268;49.880;8.648;2023-05-20T11:37:09;21.50;99.90
29241;DHT22;16268;49.880;8.648;2023-05-20T11:39:36;21.50;99.90
29241;DHT22;16268;49.880;8.648;2023-05-20T11:42:02;21.70;99.90
29241;DHT22;16268;49.880;8.648;2023-05-20T11:44:27;21.60;99.90
29241;DHT22;16268;49.880;8.648;2023-05-20T11:46:59;21.60;99.90
29241;DHT22;16268;49.880;8.648;2023-05-20T11:49:25;21.60;99.90
29241;DHT22;16268;49.880;8.648;2023-05-20T11:51:51;21.70;99.90
29241;DHT22;16268;49.880;8.648;2023-05-20T11:54:16;21.90;99.90
29241;DHT22;16268;49.880;8.648;2023-05-20T11:56:43;22.10;99.90
29241;DHT22;16268;49.880;8.648;2023-05-20T11:59:09;21.90;99.90
29241;DHT22;16268;49.880;8.648;2023-05-20T12:01:37;21.90;99.90
29241;DHT22;16268;49.880;8.648;2023-05-20T12:04:07;21.60;99.90
29241;DHT22;16268;49.880;8.648;2023-05-20T12:06:33;21.50;99.90
29241;DHT22;16268;49.880;8.648;2023-05-20T12:09:03;21.40;99.90
29241;DHT22;16268;49.880;8.648;2023-05-20T12:11:36;21.70;99.90
29241;DHT22;16268;49.880;8.648;2023-05-20T12:14:04;21.80;99.90
29241;DHT22;16268;49.880;8.648;2023-05-20T12:16:31;22.00;99.90
29241;DHT22;16268;49.880;8.648;2023-05-20T12:18:57;21.90;99.90
29241;DHT22;16268;49.880;8.648;2023-05-20T12:21:23;21.80;99.90
29241;DHT22;16268;49.880;8.648;2023-05-20T12:23:48;21.90;99.90
29241;DHT22;16268;49.880;8.648;2023-05-20T12:26:14;22.10;99.90
29241;DHT22;16268;49.880;8.648;2023-05-20T12:28:39;21.90;99.90
29241;DHT22;16268;49.880;8.648;2023-05-20T12:31:05;21.90;99.90
29241;DHT22;16268;49.880;8.648;2023-05-20T12:33:30;21.90;99.90
29241;DHT22;16268;49.880;8.648;2023-05-20T12:35:56;21.70;99.90
29241;DHT22;16268;49.880;8.648;2023-05-20T12:38:22;22.00;99.90
29241;DHT22;16268;49.880;8.648;2023-05-20T12:40:47;22.00;99.90
29241;DHT22;16268;49.880;8.648;2023-05-20T12:43:13;21.90;99.90
29241;DHT22;16268;49.880;8.648;2023-05-20T12:45:38;22.00;99.90
29241;DHT22;16268;49.880;8.648;2023-05-20T12:48:04;22.00;99.90
29241;DHT22;16268;49.880;8.648;2023-05-20T12:50:32;21.90;99.90
29241;DHT22;16268;49.880;8.648;2023-05-20T12:52:57;21.90;99.90
29241;DHT22;16268;49.880;8.648;2023-05-20T12:55:23;21.60;99.90
29241;DHT22;16268;49.880;8.648;2023-05-20T12:57:49;21.40;99.90
29241;DHT22;16268;49.880;8.648;2023-05-20T13:03:36;21.20;99.90
29241;DHT22;16268;49.880;8.648;2023-05-20T13:06:03;21.40;99.90
29241;DHT22;16268;49.880;8.648;2023-05-20T13:08:28;21.50;99.90
29241;DHT22;16268;49.880;8.648;2023-05-20T13:10:54;21.80;99.90
29241;DHT22;16268;49.880;8.648;2023-05-20T13:13:19;22.00;99.90
29241;DHT22;16268;49.880;8.648;2023-05-20T13:15:49;22.10;99.90
29241;DHT22;16268;49.880;8.648;2023-05-20T13:18:15;22.10;99.90
29241;DHT22;16268;49.880;8.648;2023-05-20T13:20:44;22.00;99.90
29241;DHT22;16268;49.880;8.648;2023-05-20T13:23:10;22.00;99.90
29241;DHT22;16268;49.880;8.648;2023-05-20T13:25:35;22.00;99.90
29241;DHT22;16268;49.880;8.648;2023-05-20T13:28:02;22.10;99.90
29241;DHT22;16268;49.880;8.648;2023-05-20T13:30:27;22.10;99.90
29241;DHT22;16268;49.880;8.648;2023-05-20T13:32:53;22.20;99.90
29241;DHT22;16268;49.880;8.648;2023-05-20T13:35:19;21.90;99.90
29241;DHT22;16268;49.880;8.648;2023-05-20T13:37:44;21.90;99.90
29241;DHT22;16268;49.880;8.648;2023-05-20T13:40:10;21.80;99.90
29241;DHT22;16268;49.880;8.648;2023-05-20T13:42:36;22.00;99.90
29241;DHT22;16268;49.880;8.648;2023-05-20T13:45:02;21.90;99.90
29241;DHT22;16268;49.880;8.648;2023-05-20T13:47:28;22.00;99.90
29241;DHT22;16268;49.880;8.648;2023-05-20T13:49:53;22.00;99.90
29241;DHT22;16268;49.880;8.648;2023-05-20T13:52:19;22.20;99.90
29241;DHT22;16268;49.880;8.648;2023-05-20T13:54:44;22.10;99.90
29241;DHT22;16268;49.880;8.648;2023-05-20T13:57:11;22.10;99.90
29241;DHT22;16268;49.880;8.648;2023-05-20T13:59:37;21.90;99.90
29241;DHT22;16268;49.880;8.648;2023-05-20T14:02:03;21.70;99.90
29241;DHT22;16268;49.880;8.648;2023-05-20T14:04:28;21.90;99.90
29241;DHT22;16268;49.880;8.648;2023-05-20T14:06:55;21.70;99.90
29241;DHT22;16268;49.880;8.648;2023-05-20T14:09:21;21.70;99.90
29241;DHT22;16268;49.880;8.648;2023-05-20T14:11:46;21.80;99.90
29241;DHT22;16268;49.880;8.648;2023-05-20T14:14:12;21.80;99.90
29241;DHT22;16268;49.880;8.648;2023-05-20T14:16:37;21.80;99.90
29241;DHT22;16268;49.880;8.648;2023-05-20T14:19:03;21.80;99.90
29241;DHT22;16268;49.880;8.648;2023-05-20T14:21:29;21.90;99.90
29241;DHT22;16268;49.880;8.648;2023-05-20T14:23:57;22.20;99.90
29241;DHT22;16268;49.880;8.648;2023-05-20T14:26:23;21.90;99.90
29241;DHT22;16268;49.880;8.648;2023-05-20T14:28:48;21.80;99.90
29241;DHT22;16268;49.880;8.648;2023-05-20T14:31:14;21.50;99.90
29241;DHT22;16268;49.880;8.648;2023-05-20T14:33:40;21.50;99.90
29241;DHT22;16268;49.880;8.648;2023-05-20T14:36:05;21.80;99.90
29241;DHT22;16268;49.880;8.648;2023-05-20T14:38:31;22.00;99.90
29241;DHT22;16268;49.880;8.648;2023-05-20T14:40:57;22.30;99.90
29241;DHT22;16268;49.880;8.648;2023-05-20T14:43:22;22.40;99.90
29241;DHT22;16268;49.880;8.648;2023-05-20T14:45:48;22.50;99.90
29241;DHT22;16268;49.880;8.648;2023-05-20T14:48:13;22.40;99.90
29241;DHT22;16268;49.880;8.648;2023-05-20T14:50:39;22.30;99.90
29241;DHT22;16268;49.880;8.648;2023-05-20T14:53:04;22.10;99.90
29241;DHT22;16268;49.880;8.648;2023-05-20T14:55:30;22.10;99.90
29241;DHT22;16268;49.880;8.648;2023-05-20T14:57:56;21.80;99.90
29241;DHT22;16268;49.880;8.648;2023-05-20T15:00:21;21.80;99.90
29241;DHT22;16268;49.880;8.648;2023-05-20T15:02:47;21.80;99.90
29241;DHT22;16268;49.880;8.648;2023-05-20T15:05:13;22.00;99.90
29241;DHT22;16268;49.880;8.648;2023-05-20T15:07:38;22.10;99.90
29241;DHT22;16268;49.880;8.648;2023-05-20T15:10:04;21.90;99.90
29241;DHT22;16268;49.880;8.648;2023-05-20T15:12:30;21.80;99.90
29241;DHT22;16268;49.880;8.648;2023-05-20T15:14:55;22.00;99.90
29241;DHT22;16268;49.880;8.648;2023-05-20T15:17:21;21.90;99.90
29241;DHT22;16268;49.880;8.648;2023-05-20T15:19:46;22.10;99.90
29241;DHT22;16268;49.880;8.648;2023-05-20T15:22:12;22.20;99.90
29241;DHT22;16268;49.880;8.648;2023-05-20T15:24:37;22.00;99.90
29241;DHT22;16268;49.880;8.648;2023-05-20T15:27:03;21.80;99.90
29241;DHT22;16268;49.880;8.648;2023-05-20T15:29:29;21.70;99.90
29241;DHT22;16268;49.880;8.648;2023-05-20T15:31:54;21.70;99.90
29241;DHT22;16268;49.880;8.648;2023-05-20T15:34:20;21.80;99.90
29241;DHT22;16268;49.880;8.648;2023-05-20T15:36:45;21.80;99.90
29241;DHT22;16268;49.880;8.648;2023-05-20T15:39:11;21.80;99.90